CYEG/YEG METAR and TAF weather

Enter ICAO airport designator
Station Type Date Time Source
CYEG METAR 2019/04/19 23:00 UTC NOAA

CYEG 192300Z 29012G19KT 20SM FEW070 BKN110 BKN250 12/M06 A2971 RMK CU1AC7CI1 CU TR CI TR VIRGA SW QUAD SLP076 DENSITY ALT 2800FT


Station Type Date Time Source
CYEG Decoded METAR 2019/04/19 23:00 UTC NOAA

Edmonton International, Alta., Canada (CYEG) 53-18N 113-35W 723M
Apr 19, 2019 - 07:00 PM EDT / 2019.04.19 2300 UTC
Wind: from the WNW (290 degrees) at 14 MPH (12 KT) gusting to 22 MPH (19 KT):0
Visibility: 20 mile(s):0
Sky conditions: mostly cloudy
Temperature: 53 F (12 C)
Dew Point: 21 F (-6 C)
Relative Humidity: 27%
Pressure (altimeter): 29.71 in. Hg (1006 hPa)
ob: CYEG 192300Z 29012G19KT 20SM FEW070 BKN110 BKN250 12/M06 A2971 RMK CU1AC7CI1 CU TR CI TR VIRGA SW QUAD SLP076 DENSITY ALT 2800FT
cycle: 23

Station Type Date Time Source
CYEG TAF 2019/04/19 21:45 UTC NOAA

TAF TAF CYEG 192042Z 1921/2018 30015KT P6SM FEW060 BKN120
FM200200 28008KT P6SM FEW080 SCT140
FM200700 27008KT P6SM SKC
BECMG 2014/2016 31015G25KT
RMK NXT FCST BY 200000Z

Example: see airport list